Kezdőlap
METAR-TAF:

METAR-TAF

Repülőterek :

Toamasina, Madagaszkár

földrajzi szélesség: 18-07S, földrajzi hosszúság: 049-24E, magasság: 5 m

Jelenlegi meteorológiai megfigyelések

A jelentés 1 órával és 25 perccel ezelõtt készült, 23:00 UTC
Nyugati szél 2 kt
Hőmérséklet 18°C
Páratartalom 94%
Légköri nyomás 1018 hPa
Látótávolság 10 km, vagy több
Szórványos felhőzet 1700 lábon

METAR: FMMT 202300Z 28002KT 9999 SCT017 18/17 Q1018

Idő: 03:25 (00:25 UTC)

Előrejelzés

A jelentés 1 órával és 25 perccel ezelõtt készült, 23:00 UTC
Az előrejelzés 21-én 00 óra UTC és 21-én 24 óra UTC között érvényes
Különbözõ irányokból fújó szél 4 kt
Látótávolság 10 km, vagy több
Kevés felhő 1700 lábon

TAF: FMMT 202300Z 2100/2124 VRB04KT 9999 FEW017

Meteorológiai megfigyelések és előrejelzések több, mint 4000 repülőtéren (METAR és TAF jelentéseket).

A térképen piros és sárga pontok jelzik az elérhető meteorológiai állomásokat.

Mozgassa az egeret a pont fölött, hogy megjelenjen az állomás neve.

Azután kattintson az időjárási megfigyelések és előrejelzések megtekintéséhez.

A térkép megváltoztatása: kattintson a fekete keresztel jelölt zöld gombra ráközelítéshez, a vonallal jelölt zöld gombra távolításhoz, vagy a zöld nyilakra a szomszédos térképek eléréséhez.


METAR-TAF: